Oski — WYD3004 — position and weather

sailwx.info

Track history (hours):
 
Tides and Currents Weather Stations Pressure Air Temp Water Temp Dewpoint Dewpoint Depression Visibility Wind Speed Wind Dir Waves Ship Positions

Oski

Owner: BLUE & GOLD FLEET, SAN FRANCISCO, CA. More information available from US FCC via Universal Licensing System and Coast Guard Vessel Documentation Center.

Last reported at 2017-Jun-27 02:27 UTC. Time now 2017-Jun-27 10:41 UTC.
Position N 37°49' W 122°25'.

Length 24 m; draft 2 m.

Type: Passenger vessel. MMSI: 366985320.

Date/timePositionNaut miles runAvg speedWind from/ knotsBaromVisibWave heightAir tempDewpointWater temp
2017-Jun-27 02:27N 37°49' W 122°25'2 5.0
2017-Jun-27 02:01N 37°50' W 122°27'2 4.1
2017-Jun-27 01:28N 37°49' W 122°25'0 0.0
2017-Jun-27 00:59N 37°49' W 122°25'0 0.0
2017-Jun-27 00:28N 37°49' W 122°25'1 1.5
2017-Jun-27 00:01N 37°49' W 122°24'1 3.0
2017-Jun-26 23:31N 37°50' W 122°25'1 2.7
2017-Jun-26 23:00N 37°49' W 122°27'2 3.4
2017-Jun-26 22:30N 37°49' W 122°25'2 4.6
2017-Jun-26 22:00N 37°50' W 122°27'2 4.3
2017-Jun-26 21:30N 37°49' W 122°25'0 0.2
2017-Jun-26 21:00N 37°49' W 122°25'0 0.0
2017-Jun-26 20:24N 37°49' W 122°25'3 7.5
2017-Jun-26 20:00N 37°49' W 122°28'3 5.9
2017-Jun-26 19:30N 37°49' W 122°25'0 0.0
2017-Jun-26 18:59N 37°49' W 122°25'0 0.0
2017-Jun-26 02:27N 37°49' W 122°25'2 5.1
2017-Jun-26 02:00N 37°50' W 122°27'2 4.5
2017-Jun-26 01:30N 37°49' W 122°25'0 0.0
2017-Jun-26 01:00N 37°49' W 122°25'0 0.0
2017-Jun-26 00:30N 37°49' W 122°25'1 1.6
2017-Jun-26 00:00N 37°49' W 122°25'2 4.2
2017-Jun-25 23:30N 37°49' W 122°27'2 4.3
2017-Jun-25 23:00N 37°49' W 122°25'2 4.3
2017-Jun-25 22:30N 37°50' W 122°27'2 4.3
2017-Jun-25 22:00N 37°49' W 122°25'0 0.0
2017-Jun-25 21:31N 37°49' W 122°25'0 0.0
2017-Jun-25 21:00N 37°49' W 122°25'3 6.1
2017-Jun-25 20:30N 37°50' W 122°28'3 6.1
2017-Jun-25 20:00N 37°49' W 122°25'1 2.2
2017-Jun-25 19:31N 37°48' W 122°24'2 4.5
2017-Jun-25 19:00N 37°50' W 122°25'1 2.5
2017-Jun-25 18:30N 37°49' W 122°26'1 2.6
2017-Jun-25 18:00N 37°49' W 122°25'0 0.0
2017-Jun-25 06:34N 37°49' W 122°25'0 0.3
2017-Jun-25 06:31N 37°49' W 122°25'4 8.7
2017-Jun-25 06:01N 37°52' W 122°27'3 5.6
2017-Jun-25 05:31N 37°50' W 122°26'2 3.2
2017-Jun-25 05:01N 37°49' W 122°25'4 8.7
2017-Jun-25 04:31N 37°52' W 122°27'1 3.0
2017-Jun-25 04:01N 37°51' W 122°29'3 6.5
2017-Jun-25 03:31N 37°49' W 122°25'1 2.0
2017-Jun-25 03:00N 37°49' W 122°25'4 7.2
2017-Jun-25 02:31N 37°52' W 122°27'1 1.6
2017-Jun-25 02:01N 37°52' W 122°27'4 8.6
2017-Jun-25 01:31N 37°49' W 122°25'0 0.1
2017-Jun-25 01:01N 37°49' W 122°25'0 0.0
2017-Jun-25 00:31N 37°49' W 122°25'2 3.3
2017-Jun-25 00:01N 37°50' W 122°26'3 5.4
2017-Jun-24 23:30N 37°52' W 122°27'3 6.5
2017-Jun-24 23:01N 37°49' W 122°26'1 2.3
2017-Jun-24 22:31N 37°49' W 122°25'0 0.0
2017-Jun-24 02:50N 37°49' W 122°25'0 0.1
2017-Jun-24 02:30N 37°49' W 122°25'3 5.5
2017-Jun-24 02:01N 37°50' W 122°28'3 5.5
2017-Jun-24 01:30N 37°49' W 122°25'0 0.0
2017-Jun-24 01:01N 37°49' W 122°25'0 0.0
2017-Jun-24 00:30N 37°49' W 122°25'0 0.5
2017-Jun-24 00:00N 37°49' W 122°25'1 2.2
2017-Jun-23 23:31N 37°50' W 122°25'2 3.2
2017-Jun-23 23:01N 37°49' W 122°27'2 3.7
2017-Jun-23 22:31N 37°49' W 122°25'3 5.9
2017-Jun-23 22:01N 37°49' W 122°28'3 5.9
2017-Jun-23 21:31N 37°49' W 122°25'0 0.0
2017-Jun-23 21:00N 37°49' W 122°25'0 0.0
2017-Jun-23 20:31N 37°49' W 122°25'2 4.6
2017-Jun-23 20:01N 37°49' W 122°27'2 4.5
2017-Jun-23 19:30N 37°49' W 122°25'0 0.0
2017-Jun-23 01:58N 37°49' W 122°25'2 4.7
2017-Jun-23 01:30N 37°49' W 122°27'2 4.3
2017-Jun-23 01:00N 37°49' W 122°25'1 1.2
2017-Jun-23 00:30N 37°49' W 122°24'2 4.4
2017-Jun-23 00:00N 37°49' W 122°27'2 4.1
2017-Jun-22 23:30N 37°49' W 122°25'0 0.0
2017-Jun-22 23:00N 37°49' W 122°25'2 4.0
2017-Jun-22 22:30N 37°49' W 122°27'2 4.0
2017-Jun-22 22:00N 37°49' W 122°25'0 0.0
2017-Jun-22 21:30N 37°49' W 122°25'0 0.0
2017-Jun-22 21:00N 37°49' W 122°25'2 3.8
2017-Jun-22 20:30N 37°49' W 122°27'2 3.8
2017-Jun-22 20:00N 37°49' W 122°25'1 1.1
2017-Jun-22 19:30N 37°49' W 122°24'2 3.3
2017-Jun-22 19:00N 37°50' W 122°25'2 3.1
2017-Jun-22 18:30N 37°49' W 122°27'2 3.5
2017-Jun-22 18:00N 37°49' W 122°25'0 0.0
2017-Jun-22 17:30N 37°49' W 122°25'0 0.0
2017-Jun-22 02:31N 37°49' W 122°25'0 0.0
2017-Jun-22 02:28N 37°49' W 122°25'3 6.4
2017-Jun-22 02:00N 37°49' W 122°28'3 6.0
2017-Jun-22 01:30N 37°49' W 122°25'0 0.0
2017-Jun-22 01:00N 37°49' W 122°25'0 0.0
2017-Jun-22 00:30N 37°49' W 122°25'1 1.1
2017-Jun-22 00:00N 37°49' W 122°24'2 3.1
2017-Jun-21 23:30N 37°50' W 122°25'1 2.4
2017-Jun-21 23:00N 37°49' W 122°26'1 2.8
2017-Jun-21 22:30N 37°49' W 122°25'2 4.2
2017-Jun-21 22:00N 37°49' W 122°27'2 4.0
2017-Jun-21 21:30N 37°49' W 122°25'0 0.0
2017-Jun-21 20:59N 37°49' W 122°25'0 0.0
2017-Jun-21 20:27N 37°49' W 122°25'2 5.0
2017-Jun-21 20:00N 37°49' W 122°27'2 4.3
2017-Jun-21 19:30N 37°49' W 122°25'0 0.1
2017-Jun-21 19:00N 37°49' W 122°25'0 0.0
2017-Jun-20 02:13N 37°49' W 122°25'0 0.2
2017-Jun-20 02:00N 37°49' W 122°25'3 5.4
2017-Jun-20 01:30N 37°49' W 122°28'3 5.5
2017-Jun-20 01:01N 37°49' W 122°25'1 1.9
2017-Jun-20 00:30N 37°49' W 122°25'1 2.7
2017-Jun-20 00:00N 37°49' W 122°27'2 3.4
2017-Jun-19 23:30N 37°49' W 122°25'0 0.0
2017-Jun-19 23:00N 37°49' W 122°25'3 5.1
2017-Jun-19 22:30N 37°50' W 122°28'3 5.1
2017-Jun-19 22:00N 37°49' W 122°25'0 0.0
2017-Jun-19 21:30N 37°49' W 122°25'0 0.0
2017-Jun-19 21:00N 37°49' W 122°25'2 4.9
2017-Jun-19 20:30N 37°50' W 122°27'2 4.8
2017-Jun-19 20:00N 37°49' W 122°25'1 1.9
2017-Jun-19 19:30N 37°48' W 122°24'2 4.1
2017-Jun-19 19:00N 37°50' W 122°25'2 3.8
2017-Jun-19 18:30N 37°49' W 122°27'2 4.2
2017-Jun-19 18:00N 37°49' W 122°25'0 0.0
2017-Jun-19 17:28N 37°49' W 122°25'0 0.0
2017-Jun-19 06:37N 37°49' W 122°25'0 1.9
2017-Jun-19 06:30N 37°49' W 122°25'4 8.2
2017-Jun-19 06:00N 37°52' W 122°27'2 4.8
2017-Jun-19 05:30N 37°50' W 122°26'2 4.0
2017-Jun-19 04:59N 37°49' W 122°25'4 9.0
2017-Jun-19 04:31N 37°52' W 122°27'1 2.9
2017-Jun-19 04:00N 37°51' W 122°29'3 5.3
2017-Jun-19 03:30N 37°50' W 122°26'2 3.0
2017-Jun-19 02:59N 37°49' W 122°25'4 7.9
2017-Jun-19 02:31N 37°52' W 122°27'1 1.2
2017-Jun-19 02:00N 37°52' W 122°27'4 7.7
2017-Jun-19 01:27N 37°49' W 122°25'0 0.0
2017-Jun-19 01:00N 37°49' W 122°25'0 0.0
2017-Jun-19 00:30N 37°49' W 122°25'3 6.6
2017-Jun-19 00:01N 37°51' W 122°27'0 0.2
2017-Jun-18 23:30N 37°51' W 122°27'3 5.9
2017-Jun-18 22:59N 37°49' W 122°25'0 0.0
2017-Jun-18 02:51N 37°49' W 122°25'0 0.1
2017-Jun-18 02:31N 37°49' W 122°25'3 5.7
2017-Jun-18 02:01N 37°49' W 122°28'3 5.7
2017-Jun-18 01:31N 37°49' W 122°25'0 0.0
2017-Jun-18 01:00N 37°49' W 122°25'0 0.0
2017-Jun-18 00:31N 37°49' W 122°25'0 0.8
2017-Jun-17 23:59N 37°49' W 122°24'2 3.2
2017-Jun-17 23:30N 37°50' W 122°25'1 1.8
2017-Jun-17 22:54N 37°49' W 122°25'0 0.4
2017-Jun-17 22:30N 37°49' W 122°25'2 4.4
2017-Jun-17 22:00N 37°49' W 122°27'2 4.3
2017-Jun-17 21:30N 37°49' W 122°25'0 0.1
2017-Jun-17 21:00N 37°49' W 122°25'0 0.0
2017-Jun-17 20:31N 37°49' W 122°25'3 6.0
2017-Jun-17 20:00N 37°49' W 122°28'3 6.0
2017-Jun-17 19:31N 37°49' W 122°25'0 0.0
2017-Jun-17 19:00N 37°49' W 122°25'  
Track history (hours):
 
Tides and Currents Weather Stations Pressure Air Temp Water Temp Dewpoint Dewpoint Depression Visibility Wind Speed Wind Dir Waves Ship Positions

Oski

Owner: BLUE & GOLD FLEET, SAN FRANCISCO, CA. More information available from US FCC via Universal Licensing System and Coast Guard Vessel Documentation Center.

Last reported at 2017-Jun-27 02:27 UTC. Time now 2017-Jun-27 10:41 UTC.
Position N 37°49' W 122°25'.

Length 24 m; draft 2 m.

Type: Passenger vessel. MMSI: 366985320.

Date/timePositionNaut miles runAvg speedWind from/ knotsBaromVisibWave heightAir tempDewpointWater temp
2017-Jun-27 02:27N 37°49' W 122°25'2 5.0
2017-Jun-27 02:01N 37°50' W 122°27'2 4.1
2017-Jun-27 01:28N 37°49' W 122°25'0 0.0
2017-Jun-27 00:59N 37°49' W 122°25'0 0.0
2017-Jun-27 00:28N 37°49' W 122°25'1 1.5
2017-Jun-27 00:01N 37°49' W 122°24'1 3.0
2017-Jun-26 23:31N 37°50' W 122°25'1 2.7
2017-Jun-26 23:00N 37°49' W 122°27'2 3.4
2017-Jun-26 22:30N 37°49' W 122°25'2 4.6
2017-Jun-26 22:00N 37°50' W 122°27'2 4.3
2017-Jun-26 21:30N 37°49' W 122°25'0 0.2
2017-Jun-26 21:00N 37°49' W 122°25'0 0.0
2017-Jun-26 20:24N 37°49' W 122°25'3 7.5
2017-Jun-26 20:00N 37°49' W 122°28'3 5.9
2017-Jun-26 19:30N 37°49' W 122°25'0 0.0
2017-Jun-26 18:59N 37°49' W 122°25'0 0.0
2017-Jun-26 02:27N 37°49' W 122°25'2 5.1
2017-Jun-26 02:00N 37°50' W 122°27'2 4.5
2017-Jun-26 01:30N 37°49' W 122°25'0 0.0
2017-Jun-26 01:00N 37°49' W 122°25'0 0.0
2017-Jun-26 00:30N 37°49' W 122°25'1 1.6
2017-Jun-26 00:00N 37°49' W 122°25'2 4.2
2017-Jun-25 23:30N 37°49' W 122°27'2 4.3
2017-Jun-25 23:00N 37°49' W 122°25'2 4.3
2017-Jun-25 22:30N 37°50' W 122°27'2 4.3
2017-Jun-25 22:00N 37°49' W 122°25'0 0.0
2017-Jun-25 21:31N 37°49' W 122°25'0 0.0
2017-Jun-25 21:00N 37°49' W 122°25'3 6.1
2017-Jun-25 20:30N 37°50' W 122°28'3 6.1
2017-Jun-25 20:00N 37°49' W 122°25'1 2.2
2017-Jun-25 19:31N 37°48' W 122°24'2 4.5
2017-Jun-25 19:00N 37°50' W 122°25'1 2.5
2017-Jun-25 18:30N 37°49' W 122°26'1 2.6
2017-Jun-25 18:00N 37°49' W 122°25'0 0.0
2017-Jun-25 06:34N 37°49' W 122°25'0 0.3
2017-Jun-25 06:31N 37°49' W 122°25'4 8.7
2017-Jun-25 06:01N 37°52' W 122°27'3 5.6
2017-Jun-25 05:31N 37°50' W 122°26'2 3.2
2017-Jun-25 05:01N 37°49' W 122°25'4 8.7
2017-Jun-25 04:31N 37°52' W 122°27'1 3.0
2017-Jun-25 04:01N 37°51' W 122°29'3 6.5
2017-Jun-25 03:31N 37°49' W 122°25'1 2.0
2017-Jun-25 03:00N 37°49' W 122°25'4 7.2
2017-Jun-25 02:31N 37°52' W 122°27'1 1.6
2017-Jun-25 02:01N 37°52' W 122°27'4 8.6
2017-Jun-25 01:31N 37°49' W 122°25'0 0.1
2017-Jun-25 01:01N 37°49' W 122°25'0 0.0
2017-Jun-25 00:31N 37°49' W 122°25'2 3.3
2017-Jun-25 00:01N 37°50' W 122°26'3 5.4
2017-Jun-24 23:30N 37°52' W 122°27'3 6.5
2017-Jun-24 23:01N 37°49' W 122°26'1 2.3
2017-Jun-24 22:31N 37°49' W 122°25'0 0.0
2017-Jun-24 02:50N 37°49' W 122°25'0 0.1
2017-Jun-24 02:30N 37°49' W 122°25'3 5.5
2017-Jun-24 02:01N 37°50' W 122°28'3 5.5
2017-Jun-24 01:30N 37°49' W 122°25'0 0.0
2017-Jun-24 01:01N 37°49' W 122°25'0 0.0
2017-Jun-24 00:30N 37°49' W 122°25'0 0.5
2017-Jun-24 00:00N 37°49' W 122°25'1 2.2
2017-Jun-23 23:31N 37°50' W 122°25'2 3.2
2017-Jun-23 23:01N 37°49' W 122°27'2 3.7
2017-Jun-23 22:31N 37°49' W 122°25'3 5.9
2017-Jun-23 22:01N 37°49' W 122°28'3 5.9
2017-Jun-23 21:31N 37°49' W 122°25'0 0.0
2017-Jun-23 21:00N 37°49' W 122°25'0 0.0
2017-Jun-23 20:31N 37°49' W 122°25'2 4.6
2017-Jun-23 20:01N 37°49' W 122°27'2 4.5
2017-Jun-23 19:30N 37°49' W 122°25'0 0.0
2017-Jun-23 01:58N 37°49' W 122°25'2 4.7
2017-Jun-23 01:30N 37°49' W 122°27'2 4.3
2017-Jun-23 01:00N 37°49' W 122°25'1 1.2
2017-Jun-23 00:30N 37°49' W 122°24'2 4.4
2017-Jun-23 00:00N 37°49' W 122°27'2 4.1
2017-Jun-22 23:30N 37°49' W 122°25'0 0.0
2017-Jun-22 23:00N 37°49' W 122°25'2 4.0
2017-Jun-22 22:30N 37°49' W 122°27'2 4.0
2017-Jun-22 22:00N 37°49' W 122°25'0 0.0
2017-Jun-22 21:30N 37°49' W 122°25'0 0.0
2017-Jun-22 21:00N 37°49' W 122°25'2 3.8
2017-Jun-22 20:30N 37°49' W 122°27'2 3.8
2017-Jun-22 20:00N 37°49' W 122°25'1 1.1
2017-Jun-22 19:30N 37°49' W 122°24'2 3.3
2017-Jun-22 19:00N 37°50' W 122°25'2 3.1
2017-Jun-22 18:30N 37°49' W 122°27'2 3.5
2017-Jun-22 18:00N 37°49' W 122°25'0 0.0
2017-Jun-22 17:30N 37°49' W 122°25'0 0.0
2017-Jun-22 02:31N 37°49' W 122°25'0 0.0
2017-Jun-22 02:28N 37°49' W 122°25'3 6.4
2017-Jun-22 02:00N 37°49' W 122°28'3 6.0
2017-Jun-22 01:30N 37°49' W 122°25'0 0.0
2017-Jun-22 01:00N 37°49' W 122°25'0 0.0
2017-Jun-22 00:30N 37°49' W 122°25'1 1.1
2017-Jun-22 00:00N 37°49' W 122°24'2 3.1
2017-Jun-21 23:30N 37°50' W 122°25'1 2.4
2017-Jun-21 23:00N 37°49' W 122°26'1 2.8
2017-Jun-21 22:30N 37°49' W 122°25'2 4.2
2017-Jun-21 22:00N 37°49' W 122°27'2 4.0
2017-Jun-21 21:30N 37°49' W 122°25'0 0.0
2017-Jun-21 20:59N 37°49' W 122°25'0 0.0
2017-Jun-21 20:27N 37°49' W 122°25'2 5.0
2017-Jun-21 20:00N 37°49' W 122°27'2 4.3
2017-Jun-21 19:30N 37°49' W 122°25'0 0.1
2017-Jun-21 19:00N 37°49' W 122°25'0 0.0
2017-Jun-20 02:13N 37°49' W 122°25'0 0.2
2017-Jun-20 02:00N 37°49' W 122°25'3 5.4
2017-Jun-20 01:30N 37°49' W 122°28'3 5.5
2017-Jun-20 01:01N 37°49' W 122°25'1 1.9
2017-Jun-20 00:30N 37°49' W 122°25'1 2.7
2017-Jun-20 00:00N 37°49' W 122°27'2 3.4
2017-Jun-19 23:30N 37°49' W 122°25'0 0.0
2017-Jun-19 23:00N 37°49' W 122°25'3 5.1
2017-Jun-19 22:30N 37°50' W 122°28'3 5.1
2017-Jun-19 22:00N 37°49' W 122°25'0 0.0
2017-Jun-19 21:30N 37°49' W 122°25'0 0.0
2017-Jun-19 21:00N 37°49' W 122°25'2 4.9
2017-Jun-19 20:30N 37°50' W 122°27'2 4.8
2017-Jun-19 20:00N 37°49' W 122°25'1 1.9
2017-Jun-19 19:30N 37°48' W 122°24'2 4.1
2017-Jun-19 19:00N 37°50' W 122°25'2 3.8
2017-Jun-19 18:30N 37°49' W 122°27'2 4.2
2017-Jun-19 18:00N 37°49' W 122°25'0 0.0
2017-Jun-19 17:28N 37°49' W 122°25'0 0.0
2017-Jun-19 06:37N 37°49' W 122°25'0 1.9
2017-Jun-19 06:30N 37°49' W 122°25'4 8.2
2017-Jun-19 06:00N 37°52' W 122°27'2 4.8
2017-Jun-19 05:30N 37°50' W 122°26'2 4.0
2017-Jun-19 04:59N 37°49' W 122°25'4 9.0
2017-Jun-19 04:31N 37°52' W 122°27'1 2.9
2017-Jun-19 04:00N 37°51' W 122°29'3 5.3
2017-Jun-19 03:30N 37°50' W 122°26'2 3.0
2017-Jun-19 02:59N 37°49' W 122°25'4 7.9
2017-Jun-19 02:31N 37°52' W 122°27'1 1.2
2017-Jun-19 02:00N 37°52' W 122°27'4 7.7
2017-Jun-19 01:27N 37°49' W 122°25'0 0.0
2017-Jun-19 01:00N 37°49' W 122°25'0 0.0
2017-Jun-19 00:30N 37°49' W 122°25'3 6.6
2017-Jun-19 00:01N 37°51' W 122°27'0 0.2
2017-Jun-18 23:30N 37°51' W 122°27'3 5.9
2017-Jun-18 22:59N 37°49' W 122°25'0 0.0
2017-Jun-18 02:51N 37°49' W 122°25'0 0.1
2017-Jun-18 02:31N 37°49' W 122°25'3 5.7
2017-Jun-18 02:01N 37°49' W 122°28'3 5.7
2017-Jun-18 01:31N 37°49' W 122°25'0 0.0
2017-Jun-18 01:00N 37°49' W 122°25'0 0.0
2017-Jun-18 00:31N 37°49' W 122°25'0 0.8
2017-Jun-17 23:59N 37°49' W 122°24'2 3.2
2017-Jun-17 23:30N 37°50' W 122°25'1 1.8
2017-Jun-17 22:54N 37°49' W 122°25'0 0.4
2017-Jun-17 22:30N 37°49' W 122°25'2 4.4
2017-Jun-17 22:00N 37°49' W 122°27'2 4.3
2017-Jun-17 21:30N 37°49' W 122°25'0 0.1
2017-Jun-17 21:00N 37°49' W 122°25'0 0.0
2017-Jun-17 20:31N 37°49' W 122°25'3 6.0
2017-Jun-17 20:00N 37°49' W 122°28'3 6.0
2017-Jun-17 19:31N 37°49' W 122°25'0 0.0
2017-Jun-17 19:00N 37°49' W 122°25'  

Dump ship's entire track history